Time;durP1;ratioP1;P1;durP2;ratioP2;P2;SDS_P1;SDS_P2;PMS_P1;PMS_P2;Temp;Humidity;BMP_temperature;BMP_pressure;BME280_temperature;BME280_humidity;BME280_pressure;Samples;Min_cycle;Max_cycle;Signal;HPM_P1;HPM_P2
2023/08/29 00:01:44;;;;;;;5.07;4.30;;;;;;;;;;5053721;28;20349;-75
2023/08/29 00:04:10;;;;;;;5.93;4.45;;;;;;;;;;5053514;28;20159;-76
2023/08/29 00:06:35;;;;;;;4.93;4.45;;;;;;;;;;5053092;28;20061;-69
2023/08/29 00:09:01;;;;;;;5.25;3.38;;;;;;;;;;5053140;28;20021;-71
2023/08/29 00:11:27;;;;;;;5.43;4.68;;;;;;;;;;5053201;28;20419;-69
2023/08/29 00:13:53;;;;;;;4.20;3.83;;;;;;;;;;5053121;28;20098;-70
2023/08/29 00:16:18;;;;;;;2.55;2.28;;;;;;;;;;5039632;28;20212;-77
2023/08/29 00:18:43;;;;;;;1.98;1.52;;;;;;;;;;5057363;28;20025;-73
2023/08/29 00:21:09;;;;;;;4.65;3.78;;;;;;;;;;5057289;28;20033;-73
2023/08/29 00:23:35;;;;;;;4.57;3.10;;;;;;;;;;5038588;28;20388;-73
2023/08/29 00:26:00;;;;;;;5.53;3.63;;;;;;;;;;5056727;28;20064;-73
2023/08/29 00:28:28;;;;;;;4.40;3.97;;;;;;;;;;5056913;28;20052;-73
2023/08/29 00:30:54;;;;;;;4.93;3.72;;;;;;;;;;5039522;28;20017;-66
2023/08/29 00:33:19;;;;;;;5.43;4.10;;;;;;;;;;5056879;28;20032;-69
2023/08/29 00:35:46;;;;;;;4.22;3.70;;;;;;;;;;5039352;28;20021;-71
2023/08/29 00:38:12;;;;;;;5.05;4.28;;;;;;;;;;5038787;28;20067;-69
2023/08/29 00:40:37;;;;;;;6.05;5.45;;;;;;;;;;5022816;28;20032;-70
2023/08/29 00:43:03;;;;;;;5.53;5.03;;;;;;;;;;5038774;28;20155;-74
2023/08/29 00:45:30;;;;;;;6.93;4.47;;;;;;;;;;5056410;28;20393;-74
2023/08/29 00:47:56;;;;;;;4.57;4.00;;;;;;;;;;5022408;28;20028;-75
2023/08/29 00:50:22;;;;;;;4.75;4.35;;;;;;;;;;5056363;28;20393;-70
2023/08/29 00:52:47;;;;;;;5.15;4.65;;;;;;;;;;5022795;28;20112;-70
2023/08/29 00:55:13;;;;;;;4.72;4.03;;;;;;;;;;5038369;28;20500;-71
2023/08/29 00:57:39;;;;;;;4.18;3.88;;;;;;;;;;5038471;28;20029;-71
2023/08/29 01:00:05;;;;;;;4.50;4.00;;;;;;;;;;5038618;28;20415;-71
2023/08/29 01:02:30;;;;;;;4.78;4.35;;;;;;;;;;5056584;28;20040;-71
2023/08/29 01:04:56;;;;;;;4.97;4.47;;;;;;;;;;5056426;28;20028;-71
2023/08/29 01:07:21;;;;;;;4.50;4.00;;;;;;;;;;5056341;28;20390;-73
2023/08/29 01:09:47;;;;;;;4.78;4.38;;;;;;;;;;5056053;28;20362;-73
2023/08/29 01:12:16;;;;;;;5.05;4.47;;;;;;;;;;5038842;28;20032;-73
2023/08/29 01:14:58;;;;;;;4.90;4.40;;;;;;;;;;5056025;28;20056;-74
2023/08/29 01:17:53;;;;;;;5.05;4.65;;;;;;;;;;5038609;28;20029;-73
2023/08/29 01:20:19;;;;;;;5.90;5.32;;;;;;;;;;5017134;28;20389;-66
2023/08/29 01:22:47;;;;;;;7.40;5.78;;;;;;;;;;5038439;28;20017;-65
2023/08/29 01:25:30;;;;;;;8.23;5.55;;;;;;;;;;5055964;28;20036;-64
2023/08/29 01:27:55;;;;;;;7.00;5.88;;;;;;;;;;5055709;28;20017;-64
2023/08/29 01:30:22;;;;;;;8.65;5.75;;;;;;;;;;5056072;28;20035;-65
2023/08/29 01:32:47;;;;;;;8.80;5.93;;;;;;;;;;5055729;28;20029;-65
2023/08/29 01:35:13;;;;;;;5.40;4.90;;;;;;;;;;5056046;28;20029;-66
2023/08/29 01:37:39;;;;;;;6.43;5.25;;;;;;;;;;5055680;28;20033;-76
2023/08/29 01:40:06;;;;;;;6.15;5.35;;;;;;;;;;5038211;28;20092;-76
2023/08/29 01:42:31;;;;;;;5.75;5.20;;;;;;;;;;5038561;28;20033;-76
2023/08/29 01:44:57;;;;;;;5.30;4.93;;;;;;;;;;5055463;28;20052;-77
2023/08/29 01:47:22;;;;;;;5.78;5.15;;;;;;;;;;5055251;28;20120;-69
2023/08/29 01:49:48;;;;;;;4.90;4.20;;;;;;;;;;5055608;28;20110;-69
2023/08/29 01:52:15;;;;;;;5.40;4.90;;;;;;;;;;5037683;28;20033;-78
2023/08/29 01:54:40;;;;;;;5.00;4.60;;;;;;;;;;5037350;28;20056;-78
2023/08/29 01:57:06;;;;;;;5.90;5.10;;;;;;;;;;5055671;28;20063;-73
2023/08/29 01:59:32;;;;;;;5.05;4.65;;;;;;;;;;5020748;28;20068;-73
2023/08/29 02:02:00;;;;;;;5.35;4.82;;;;;;;;;;5037554;28;20057;-73
2023/08/29 02:04:25;;;;;;;4.93;4.57;;;;;;;;;;5054895;28;20477;-69
2023/08/29 02:06:51;;;;;;;4.30;3.97;;;;;;;;;;5054953;28;20067;-75
2023/08/29 02:09:16;;;;;;;4.85;4.45;;;;;;;;;;5020502;28;20486;-82
2023/08/29 02:11:41;;;;;;;4.68;4.35;;;;;;;;;;5037087;28;20032;-83
2023/08/29 02:14:11;;;;;;;4.25;3.95;;;;;;;;;;5020328;28;20112;-83
2023/08/29 02:16:37;;;;;;;4.28;4.00;;;;;;;;;;5037337;28;20091;-83
2023/08/29 02:19:04;;;;;;;3.75;3.55;;;;;;;;;;5055177;28;20025;-67
2023/08/29 02:21:29;;;;;;;3.88;3.67;;;;;;;;;;5037159;28;20021;-67
2023/08/29 02:23:54;;;;;;;5.43;4.43;;;;;;;;;;5037564;28;20028;-76
2023/08/29 02:26:20;;;;;;;4.18;3.78;;;;;;;;;;5036808;28;20036;-76
2023/08/29 02:28:45;;;;;;;4.13;3.83;;;;;;;;;;5054518;28;20104;-71
2023/08/29 02:31:13;;;;;;;5.57;4.88;;;;;;;;;;5054354;28;20090;-77
2023/08/29 02:33:38;;;;;;;4.60;4.20;;;;;;;;;;5054402;28;20041;-77
2023/08/29 02:36:04;;;;;;;4.28;3.97;;;;;;;;;;5036853;28;20082;-76
2023/08/29 02:38:30;;;;;;;4.50;4.20;;;;;;;;;;5035832;28;20037;-76
2023/08/29 02:40:55;;;;;;;5.20;4.80;;;;;;;;;;5054816;28;20376;-76
2023/08/29 02:43:21;;;;;;;5.10;4.70;;;;;;;;;;5054934;28;20098;-76
2023/08/29 02:45:48;;;;;;;4.95;4.60;;;;;;;;;;5036136;28;20048;-75
2023/08/29 02:48:14;;;;;;;6.38;5.78;;;;;;;;;;5054749;28;20092;-74
2023/08/29 02:50:41;;;;;;;6.47;5.97;;;;;;;;;;5036435;28;20520;-72
2023/08/29 02:53:07;;;;;;;6.65;6.15;;;;;;;;;;5036854;28;20523;-75
2023/08/29 02:55:33;;;;;;;5.35;4.95;;;;;;;;;;5054655;28;20029;-74
2023/08/29 02:57:59;;;;;;;6.15;5.65;;;;;;;;;;5035996;28;20488;-75
2023/08/29 03:00:25;;;;;;;5.30;4.80;;;;;;;;;;5054256;28;20112;-73
2023/08/29 03:02:50;;;;;;;5.88;5.45;;;;;;;;;;5036144;28;20139;-67
2023/08/29 03:05:16;;;;;;;6.13;5.60;;;;;;;;;;5054600;28;20448;-68
2023/08/29 03:07:41;;;;;;;4.53;4.22;;;;;;;;;;5035975;28;20021;-68
2023/08/29 03:10:08;;;;;;;6.47;5.88;;;;;;;;;;5036160;28;20025;-70
2023/08/29 03:12:33;;;;;;;5.60;5.20;;;;;;;;;;5020042;28;20119;-67
2023/08/29 03:14:59;;;;;;;6.68;6.07;;;;;;;;;;5036686;28;20037;-67
2023/08/29 03:17:25;;;;;;;5.85;5.38;;;;;;;;;;5036600;28;20072;-74
2023/08/29 03:19:51;;;;;;;7.32;5.97;;;;;;;;;;5036377;28;20092;-74
2023/08/29 03:22:16;;;;;;;6.65;6.05;;;;;;;;;;5036080;28;20480;-69
2023/08/29 03:24:46;;;;;;;6.50;5.90;;;;;;;;;;5036102;28;20032;-76
2023/08/29 03:27:12;;;;;;;6.57;6.03;;;;;;;;;;5036214;28;20025;-75
2023/08/29 03:29:37;;;;;;;7.65;6.88;;;;;;;;;;5053979;28;20465;-73
2023/08/29 03:32:03;;;;;;;6.63;6.00;;;;;;;;;;5053901;28;20032;-78
2023/08/29 03:34:29;;;;;;;6.55;5.95;;;;;;;;;;5036717;28;20039;-71
2023/08/29 03:36:54;;;;;;;7.70;7.00;;;;;;;;;;5036123;28;20353;-72
2023/08/29 03:39:21;;;;;;;8.80;7.70;;;;;;;;;;5035977;28;20094;-71
2023/08/29 03:41:46;;;;;;;7.53;6.82;;;;;;;;;;5053613;28;20029;-68
2023/08/29 03:44:12;;;;;;;8.68;7.75;;;;;;;;;;5019819;28;20071;-66
2023/08/29 03:46:37;;;;;;;9.38;8.45;;;;;;;;;;5035553;28;20037;-66
2023/08/29 03:49:03;;;;;;;10.02;9.02;;;;;;;;;;5036263;28;20082;-67
2023/08/29 03:51:29;;;;;;;9.60;8.63;;;;;;;;;;5058303;28;20194;-65
2023/08/29 03:53:55;;;;;;;8.25;7.50;;;;;;;;;;5039759;28;20037;-71
2023/08/29 03:56:20;;;;;;;8.57;7.72;;;;;;;;;;5057645;28;20056;-73
2023/08/29 03:58:48;;;;;;;7.93;7.15;;;;;;;;;;5023316;28;20067;-69
2023/08/29 04:01:14;;;;;;;9.50;7.38;;;;;;;;;;5057012;28;20037;-73
2023/08/29 04:03:39;;;;;;;10.15;8.90;;;;;;;;;;5039846;28;20104;-69
2023/08/29 04:06:06;;;;;;;9.18;8.27;;;;;;;;;;5023406;28;20029;-69
2023/08/29 04:08:32;;;;;;;9.25;8.30;;;;;;;;;;5039989;28;20028;-73
2023/08/29 04:10:57;;;;;;;8.70;7.75;;;;;;;;;;5039619;28;20400;-73
2023/08/29 04:13:23;;;;;;;8.40;6.65;;;;;;;;;;5039755;28;20029;-72
2023/08/29 04:15:49;;;;;;;7.22;6.53;;;;;;;;;;5039046;28;20379;-72
2023/08/29 04:18:15;;;;;;;6.28;5.75;;;;;;;;;;5039696;28;20083;-74
2023/08/29 04:20:40;;;;;;;7.00;6.30;;;;;;;;;;5057467;28;20043;-75
2023/08/29 04:23:07;;;;;;;7.63;6.82;;;;;;;;;;5022495;28;20033;-76
2023/08/29 04:25:36;;;;;;;6.28;5.72;;;;;;;;;;5022566;28;20025;-79
2023/08/29 04:28:02;;;;;;;6.72;6.03;;;;;;;;;;5039101;28;20032;-75
2023/08/29 04:30:27;;;;;;;6.95;6.15;;;;;;;;;;5056793;28;20017;-77
2023/08/29 04:32:53;;;;;;;7.85;6.32;;;;;;;;;;5056723;28;20061;-68
2023/08/29 04:35:19;;;;;;;8.90;7.60;;;;;;;;;;5039249;28;20032;-68
2023/08/29 04:37:45;;;;;;;8.13;6.30;;;;;;;;;;5056905;28;20036;-74
2023/08/29 04:40:11;;;;;;;8.10;6.82;;;;;;;;;;5056729;28;20033;-78
2023/08/29 04:42:39;;;;;;;7.03;6.25;;;;;;;;;;5038641;28;20048;-79
2023/08/29 04:45:04;;;;;;;8.07;7.18;;;;;;;;;;5056753;28;20032;-75
2023/08/29 04:47:30;;;;;;;7.82;6.63;;;;;;;;;;5056622;28;20032;-68
2023/08/29 04:49:55;;;;;;;8.65;7.47;;;;;;;;;;5039042;28;20051;-77
2023/08/29 04:52:21;;;;;;;9.77;7.40;;;;;;;;;;5038443;28;20037;-68
2023/08/29 04:54:46;;;;;;;8.95;7.50;;;;;;;;;;5038470;28;20037;-69
2023/08/29 04:57:13;;;;;;;10.63;8.45;;;;;;;;;;5038750;28;20033;-71
2023/08/29 04:59:38;;;;;;;10.20;7.63;;;;;;;;;;5056824;28;20476;-67
2023/08/29 05:02:04;;;;;;;11.38;8.85;;;;;;;;;;5036881;28;20068;-63
2023/08/29 05:04:29;;;;;;;8.23;7.43;;;;;;;;;;5038506;28;20439;-63
2023/08/29 05:06:55;;;;;;;8.32;7.47;;;;;;;;;;5022066;28;20047;-64
2023/08/29 05:09:21;;;;;;;6.70;5.75;;;;;;;;;;5056461;28;20043;-64
2023/08/29 05:11:47;;;;;;;6.38;5.75;;;;;;;;;;5056451;28;20033;-64
2023/08/29 05:14:12;;;;;;;6.28;5.68;;;;;;;;;;5056449;28;20471;-64
2023/08/29 05:16:38;;;;;;;5.93;5.43;;;;;;;;;;5038485;28;20025;-65
2023/08/29 05:19:07;;;;;;;5.68;5.10;;;;;;;;;;5038544;28;20029;-65
2023/08/29 05:21:33;;;;;;;5.63;5.13;;;;;;;;;;5038388;28;20028;-71
2023/08/29 05:23:58;;;;;;;5.68;4.53;;;;;;;;;;5055951;28;20036;-71
2023/08/29 05:26:24;;;;;;;5.35;4.85;;;;;;;;;;5054892;28;20021;-71
2023/08/29 05:28:49;;;;;;;5.38;4.97;;;;;;;;;;5055343;28;20025;-71
2023/08/29 05:31:15;;;;;;;7.43;5.50;;;;;;;;;;5019477;28;20445;-71
2023/08/29 05:33:40;;;;;;;6.13;5.63;;;;;;;;;;5022908;28;20065;-71
2023/08/29 05:36:06;;;;;;;7.18;6.53;;;;;;;;;;5003387;28;20025;-71
2023/08/29 05:38:31;;;;;;;7.05;6.45;;;;;;;;;;5014792;28;20018;-71
2023/08/29 05:40:56;;;;;;;5.40;4.90;;;;;;;;;;4997944;28;20105;-71
2023/08/29 05:43:22;;;;;;;7.65;5.10;;;;;;;;;;5015961;28;20450;-71
2023/08/29 05:45:47;;;;;;;7.47;6.78;;;;;;;;;;4994667;28;20046;-71
2023/08/29 05:48:13;;;;;;;8.00;6.75;;;;;;;;;;4995042;28;20026;-71
2023/08/29 05:50:40;;;;;;;7.20;6.50;;;;;;;;;;5004221;28;20027;-71
2023/08/29 05:53:05;;;;;;;7.63;6.93;;;;;;;;;;5014993;28;20029;-71
2023/08/29 05:55:31;;;;;;;7.32;6.53;;;;;;;;;;5013597;28;20402;-71
2023/08/29 05:57:56;;;;;;;6.97;6.20;;;;;;;;;;5013923;28;20450;-71
2023/08/29 06:00:21;;;;;;;7.15;6.53;;;;;;;;;;5013878;28;20022;-71
2023/08/29 06:02:47;;;;;;;6.10;5.55;;;;;;;;;;5012710;28;20084;-71
2023/08/29 06:05:13;;;;;;;7.07;6.38;;;;;;;;;;5014660;28;20029;-71
2023/08/29 06:07:41;;;;;;;5.78;5.18;;;;;;;;;;5014718;28;20030;-71
2023/08/29 06:10:07;;;;;;;5.32;4.93;;;;;;;;;;5014695;28;20514;-71
2023/08/29 06:12:33;;;;;;;4.80;4.40;;;;;;;;;;5014665;28;20057;-71
2023/08/29 06:14:58;;;;;;;5.15;4.75;;;;;;;;;;5014833;28;20034;-71
2023/08/29 06:17:24;;;;;;;5.10;4.70;;;;;;;;;;5013526;28;20045;-71
2023/08/29 06:19:49;;;;;;;5.22;4.82;;;;;;;;;;5014911;28;20042;-71
2023/08/29 06:22:15;;;;;;;7.60;5.68;;;;;;;;;;5013881;28;20446;-72
2023/08/29 06:24:41;;;;;;;6.45;4.38;;;;;;;;;;5014922;28;20026;-72
2023/08/29 06:27:06;;;;;;;5.80;5.25;;;;;;;;;;5013569;28;20117;-72
2023/08/29 06:29:31;;;;;;;6.18;5.68;;;;;;;;;;5012551;28;20040;-72
2023/08/29 06:31:57;;;;;;;4.82;4.35;;;;;;;;;;5014237;28;20037;-72
2023/08/29 06:34:23;;;;;;;4.72;4.32;;;;;;;;;;5014274;28;20067;-72
2023/08/29 06:36:48;;;;;;;3.92;3.63;;;;;;;;;;5014030;28;20426;-66
2023/08/29 06:39:13;;;;;;;4.88;4.47;;;;;;;;;;5012617;28;20033;-66
2023/08/29 06:41:39;;;;;;;5.43;4.13;;;;;;;;;;5007943;28;20052;-66
2023/08/29 06:44:04;;;;;;;4.63;4.20;;;;;;;;;;5008565;28;20026;-66
2023/08/29 06:46:30;;;;;;;4.18;3.88;;;;;;;;;;5024085;28;20049;-66
2023/08/29 06:48:55;;;;;;;4.43;3.63;;;;;;;;;;5016835;28;20116;-66
2023/08/29 06:51:21;;;;;;;4.10;3.83;;;;;;;;;;5034417;28;20437;-66
2023/08/29 06:53:46;;;;;;;3.97;3.67;;;;;;;;;;5033981;28;20037;-67
2023/08/29 06:56:12;;;;;;;3.88;3.58;;;;;;;;;;5016992;28;20116;-68
2023/08/29 06:58:38;;;;;;;3.95;3.63;;;;;;;;;;5000020;28;20033;-68
2023/08/29 07:01:03;;;;;;;3.50;2.97;;;;;;;;;;5033805;28;20508;-74
2023/08/29 07:03:30;;;;;;;5.43;4.90;;;;;;;;;;5034177;28;20037;-74
2023/08/29 07:05:55;;;;;;;5.43;4.45;;;;;;;;;;5033756;28;20536;-75
2023/08/29 07:08:21;;;;;;;6.90;4.00;;;;;;;;;;5033871;28;20112;-74
2023/08/29 07:10:47;;;;;;;8.70;7.72;;;;;;;;;;5033183;28;20112;-74
2023/08/29 07:13:13;;;;;;;25.90;10.95;;;;;;;;;;5033763;28;20067;-76
2023/08/29 07:15:38;;;;;;;15.98;11.50;;;;;;;;;;5033345;28;20017;-69
2023/08/29 07:18:05;;;;;;;14.93;10.65;;;;;;;;;;5033431;28;20029;-69
2023/08/29 07:20:31;;;;;;;8.93;7.60;;;;;;;;;;5032878;28;20523;-76
2023/08/29 07:22:56;;;;;;;11.88;9.13;;;;;;;;;;5033225;28;20029;-69
2023/08/29 07:25:35;;;;;;;12.48;9.25;;;;;;;;;;5032894;28;20112;-75
2023/08/29 07:28:00;;;;;;;14.10;11.07;;;;;;;;;;5015653;28;20053;-69
2023/08/29 07:30:26;;;;;;;14.77;10.23;;;;;;;;;;5033411;28;20071;-75
2023/08/29 07:32:51;;;;;;;10.60;9.48;;;;;;;;;;5033570;28;20067;-73
2023/08/29 07:35:16;;;;;;;7.07;6.38;;;;;;;;;;5033735;28;20033;-73
2023/08/29 07:37:42;;;;;;;12.20;10.38;;;;;;;;;;5043341;23;20041;-73
2023/08/29 07:40:08;;;;;;;8.13;7.30;;;;;;;;;;5039755;23;20064;-70
2023/08/29 07:42:34;;;;;;;6.78;6.10;;;;;;;;;;5041269;23;20088;-76
2023/08/29 07:45:00;;;;;;;6.65;5.97;;;;;;;;;;5061571;23;20065;-75
2023/08/29 07:47:25;;;;;;;9.77;8.50;;;;;;;;;;5014519;28;20034;-73
2023/08/29 07:49:50;;;;;;;6.20;5.57;;;;;;;;;;5043696;23;20053;-68
2023/08/29 07:52:16;;;;;;;7.22;6.47;;;;;;;;;;5013668;28;20038;-68
2023/08/29 07:54:42;;;;;;;6.55;5.93;;;;;;;;;;5008520;28;20419;-68
2023/08/29 07:57:07;;;;;;;8.77;6.78;;;;;;;;;;4994661;28;20030;-68
2023/08/29 07:59:33;;;;;;;9.23;7.28;;;;;;;;;;4994486;28;20030;-68
2023/08/29 08:01:58;;;;;;;7.82;7.03;;;;;;;;;;4994599;28;20370;-68
2023/08/29 08:04:24;;;;;;;7.55;6.82;;;;;;;;;;4994762;28;20039;-68
2023/08/29 08:06:49;;;;;;;9.68;7.03;;;;;;;;;;4992728;28;20031;-68
2023/08/29 08:09:15;;;;;;;7.85;7.13;;;;;;;;;;4993109;28;20026;-68
2023/08/29 08:11:41;;;;;;;7.80;7.05;;;;;;;;;;5009092;28;20104;-68
2023/08/29 08:14:06;;;;;;;7.60;6.70;;;;;;;;;;4993001;28;20474;-68
2023/08/29 08:16:31;;;;;;;8.13;7.28;;;;;;;;;;5008654;28;20097;-67
2023/08/29 08:18:57;;;;;;;8.02;7.20;;;;;;;;;;4993647;28;20373;-67
2023/08/29 08:21:22;;;;;;;8.95;7.70;;;;;;;;;;4993432;28;20162;-67
2023/08/29 08:23:48;;;;;;;9.15;8.25;;;;;;;;;;4993620;28;20015;-67
2023/08/29 08:26:13;;;;;;;10.75;9.32;;;;;;;;;;4993578;28;20056;-67
2023/08/29 08:28:38;;;;;;;7.55;6.75;;;;;;;;;;4993240;28;20053;-67
2023/08/29 08:31:06;;;;;;;6.22;5.40;;;;;;;;;;4993441;28;20447;-67
2023/08/29 08:33:32;;;;;;;8.85;7.95;;;;;;;;;;4992066;28;20030;-67
2023/08/29 08:35:57;;;;;;;8.65;7.63;;;;;;;;;;4995333;28;20382;-67
2023/08/29 08:38:22;;;;;;;6.53;5.90;;;;;;;;;;4997182;28;20022;-67
2023/08/29 08:40:48;;;;;;;8.70;6.85;;;;;;;;;;4996516;28;20482;-67
2023/08/29 08:43:15;;;;;;;7.68;6.07;;;;;;;;;;4996571;28;20030;-68
2023/08/29 08:45:40;;;;;;;7.63;6.93;;;;;;;;;;4996666;28;20041;-68
2023/08/29 08:48:06;;;;;;;6.18;5.60;;;;;;;;;;4996862;28;20030;-68
2023/08/29 08:50:31;;;;;;;7.53;6.60;;;;;;;;;;4996699;28;20038;-68
2023/08/29 08:52:58;;;;;;;6.57;6.03;;;;;;;;;;5011760;28;20462;-68
2023/08/29 08:55:23;;;;;;;4.78;4.47;;;;;;;;;;4996640;28;20423;-68
2023/08/29 08:57:50;;;;;;;6.43;5.82;;;;;;;;;;4996556;28;20065;-68
2023/08/29 09:00:16;;;;;;;6.20;5.70;;;;;;;;;;4996689;28;20034;-67
2023/08/29 09:02:42;;;;;;;6.15;5.55;;;;;;;;;;5011812;28;20436;-67
2023/08/29 09:05:07;;;;;;;6.10;5.60;;;;;;;;;;4996603;28;20014;-67
2023/08/29 09:07:36;;;;;;;5.88;5.43;;;;;;;;;;4996230;28;20092;-67
2023/08/29 09:10:07;;;;;;;6.25;5.75;;;;;;;;;;5011614;28;20029;-67
2023/08/29 09:12:33;;;;;;;5.97;5.45;;;;;;;;;;4996535;28;20057;-67
2023/08/29 09:15:00;;;;;;;4.90;4.55;;;;;;;;;;4995103;28;20061;-67
2023/08/29 09:17:26;;;;;;;6.30;5.70;;;;;;;;;;4995038;28;20045;-74
2023/08/29 09:19:51;;;;;;;5.47;4.97;;;;;;;;;;4996022;28;20402;-67
2023/08/29 09:22:18;;;;;;;5.32;4.82;;;;;;;;;;4996336;28;20073;-67
2023/08/29 09:24:43;;;;;;;5.88;5.30;;;;;;;;;;4996247;28;20549;-67
2023/08/29 09:27:09;;;;;;;6.20;5.70;;;;;;;;;;4996227;28;20037;-67
2023/08/29 09:29:35;;;;;;;5.65;5.15;;;;;;;;;;5011333;28;20485;-66
2023/08/29 09:32:10;;;;;;;7.03;6.32;;;;;;;;;;4995970;28;20049;-66
2023/08/29 09:34:36;;;;;;;7.07;6.47;;;;;;;;;;5010741;28;20037;-66
2023/08/29 09:37:03;;;;;;;7.35;6.55;;;;;;;;;;4994629;28;20050;-66
2023/08/29 09:39:28;;;;;;;6.65;6.10;;;;;;;;;;4994559;28;20493;-66
2023/08/29 09:42:00;;;;;;;7.15;6.55;;;;;;;;;;4995869;28;20121;-66
2023/08/29 09:44:26;;;;;;;9.57;7.70;;;;;;;;;;4995870;28;20117;-66
2023/08/29 09:46:51;;;;;;;7.30;6.60;;;;;;;;;;4995081;28;20435;-67
2023/08/29 09:49:17;;;;;;;9.13;7.45;;;;;;;;;;4995869;28;20019;-66
2023/08/29 09:51:43;;;;;;;7.45;6.85;;;;;;;;;;4995613;28;20501;-67
2023/08/29 09:54:10;;;;;;;12.82;7.93;;;;;;;;;;4995677;28;20112;-66
2023/08/29 09:56:37;;;;;;;8.55;7.72;;;;;;;;;;4995386;28;20099;-67
2023/08/29 09:59:03;;;;;;;9.43;7.47;;;;;;;;;;4995472;28;20520;-67
2023/08/29 10:01:29;;;;;;;7.97;7.22;;;;;;;;;;4994097;28;20037;-67
2023/08/29 10:03:56;;;;;;;7.22;6.63;;;;;;;;;;4995668;28;20097;-67
2023/08/29 10:06:22;;;;;;;8.02;6.88;;;;;;;;;;4995498;28;20026;-67
2023/08/29 10:08:55;;;;;;;6.88;6.10;;;;;;;;;;4995705;28;20034;-67
2023/08/29 10:11:20;;;;;;;8.15;7.25;;;;;;;;;;5011480;28;20463;-67
2023/08/29 10:13:47;;;;;;;8.57;7.78;;;;;;;;;;4995579;28;20083;-67
2023/08/29 10:16:14;;;;;;;7.57;6.88;;;;;;;;;;4995908;28;20031;-67
2023/08/29 10:18:40;;;;;;;7.03;6.40;;;;;;;;;;4996268;28;20028;-67
2023/08/29 10:21:05;;;;;;;8.45;7.55;;;;;;;;;;4994773;28;20030;-67
2023/08/29 10:23:31;;;;;;;9.57;7.65;;;;;;;;;;4995672;28;20053;-67
2023/08/29 10:25:58;;;;;;;8.73;7.97;;;;;;;;;;5010853;28;20374;-67
2023/08/29 10:28:23;;;;;;;8.43;7.63;;;;;;;;;;4995656;28;20030;-67
2023/08/29 10:30:51;;;;;;;8.27;7.47;;;;;;;;;;5010744;28;20117;-68
2023/08/29 10:33:17;;;;;;;9.00;7.20;;;;;;;;;;4995792;28;20037;-68
2023/08/29 10:35:46;;;;;;;13.23;8.25;;;;;;;;;;5010908;28;20129;-68
2023/08/29 10:38:15;;;;;;;15.25;8.13;;;;;;;;;;4995209;28;20076;-68
2023/08/29 10:40:41;;;;;;;8.57;7.35;;;;;;;;;;4994482;28;20030;-68
2023/08/29 10:43:21;;;;;;;7.75;7.05;;;;;;;;;;4995422;28;20057;-68
2023/08/29 10:45:50;;;;;;;21.42;7.68;;;;;;;;;;5010761;28;20026;-68
2023/08/29 10:48:20;;;;;;;8.55;7.70;;;;;;;;;;4995264;28;20483;-68
2023/08/29 10:50:47;;;;;;;8.50;7.65;;;;;;;;;;4995125;28;20097;-68
2023/08/29 10:53:17;;;;;;;7.90;7.18;;;;;;;;;;4993626;28;20121;-68
2023/08/29 10:55:56;;;;;;;14.48;8.25;;;;;;;;;;4995725;28;20032;-68
2023/08/29 10:58:38;;;;;;;10.35;7.78;;;;;;;;;;5005426;28;20423;-68
2023/08/29 11:01:05;;;;;;;15.60;8.13;;;;;;;;;;5014320;28;20385;-68
2023/08/29 11:03:39;;;;;;;12.77;8.45;;;;;;;;;;5014493;28;20037;-67
2023/08/29 11:06:05;;;;;;;14.02;8.50;;;;;;;;;;5014663;28;20032;-68
2023/08/29 11:08:30;;;;;;;24.67;8.82;;;;;;;;;;5015031;28;20381;-68
2023/08/29 11:11:14;;;;;;;23.35;8.88;;;;;;;;;;5014385;28;20056;-68
2023/08/29 11:13:59;;;;;;;29.45;9.25;;;;;;;;;;5014369;28;20076;-68
2023/08/29 11:16:27;;;;;;;38.60;9.70;;;;;;;;;;5014172;28;20034;-68
2023/08/29 11:19:20;;;;;;;15.00;8.10;;;;;;;;;;5013908;28;20374;-68
2023/08/29 11:21:47;;;;;;;11.45;8.40;;;;;;;;;;5009249;28;20140;-68
2023/08/29 11:24:12;;;;;;;13.63;8.38;;;;;;;;;;5008836;28;20073;-68
2023/08/29 11:26:43;;;;;;;12.82;7.97;;;;;;;;;;4994939;28;20458;-68
2023/08/29 11:29:08;;;;;;;10.38;7.97;;;;;;;;;;4994651;28;20085;-68
2023/08/29 11:31:39;;;;;;;8.75;7.85;;;;;;;;;;4994479;28;20080;-68
2023/08/29 11:34:11;;;;;;;8.23;7.38;;;;;;;;;;4994337;28;20030;-68
2023/08/29 11:36:36;;;;;;;10.77;7.65;;;;;;;;;;5006653;28;20030;-73
2023/08/29 11:39:04;;;;;;;9.13;7.78;;;;;;;;;;5013833;28;20057;-74
2023/08/29 11:41:29;;;;;;;8.73;7.75;;;;;;;;;;5013864;28;20416;-74
2023/08/29 11:43:56;;;;;;;9.50;8.20;;;;;;;;;;5013790;28;20168;-73
2023/08/29 11:46:21;;;;;;;13.70;8.05;;;;;;;;;;5012534;28;20489;-74
2023/08/29 11:48:47;;;;;;;9.05;8.23;;;;;;;;;;5014046;28;20025;-74
2023/08/29 11:51:12;;;;;;;9.23;8.32;;;;;;;;;;5013658;28;20053;-73
2023/08/29 11:53:38;;;;;;;8.80;7.95;;;;;;;;;;5013906;28;20120;-73
2023/08/29 11:56:05;;;;;;;10.75;8.13;;;;;;;;;;5012510;28;20136;-73
2023/08/29 11:58:31;;;;;;;10.80;8.02;;;;;;;;;;5012403;28;20058;-73
2023/08/29 12:00:57;;;;;;;8.98;8.13;;;;;;;;;;5013797;28;20095;-74
2023/08/29 12:03:23;;;;;;;9.20;7.80;;;;;;;;;;5013806;28;20493;-74
2023/08/29 12:05:48;;;;;;;11.77;8.18;;;;;;;;;;5013583;28;20113;-73
2023/08/29 12:08:14;;;;;;;8.95;8.05;;;;;;;;;;5013559;28;20021;-73
2023/08/29 12:10:49;;;;;;;10.32;8.38;;;;;;;;;;5015378;28;20373;-74
2023/08/29 12:13:14;;;;;;;9.98;7.53;;;;;;;;;;5017780;28;20038;-73
2023/08/29 12:15:40;;;;;;;12.82;7.88;;;;;;;;;;5017218;28;20036;-73
2023/08/29 12:18:05;;;;;;;8.73;7.90;;;;;;;;;;5017355;28;20026;-74
2023/08/29 12:20:33;;;;;;;9.98;8.80;;;;;;;;;;5017191;28;20026;-73
2023/08/29 12:22:59;;;;;;;9.70;8.75;;;;;;;;;;5016949;28;20382;-73
2023/08/29 12:25:24;;;;;;;11.25;9.07;;;;;;;;;;5017193;28;20026;-73
2023/08/29 12:27:50;;;;;;;8.63;7.88;;;;;;;;;;5017094;28;20424;-73
2023/08/29 12:30:16;;;;;;;10.30;8.07;;;;;;;;;;5017214;28;20026;-73
2023/08/29 12:32:45;;;;;;;11.18;8.68;;;;;;;;;;5017119;28;20029;-73
2023/08/29 12:35:11;;;;;;;10.03;8.50;;;;;;;;;;5017022;28;20425;-73
2023/08/29 12:37:38;;;;;;;9.13;8.18;;;;;;;;;;5016922;28;20038;-73
2023/08/29 12:40:05;;;;;;;67.28;13.95;;;;;;;;;;5016886;28;20036;-74
2023/08/29 12:42:30;;;;;;;18.17;9.98;;;;;;;;;;5016799;28;20026;-73
2023/08/29 12:44:56;;;;;;;13.00;9.20;;;;;;;;;;5016792;28;20361;-73
2023/08/29 12:47:21;;;;;;;10.05;8.93;;;;;;;;;;5017088;28;20429;-73
2023/08/29 12:49:47;;;;;;;11.25;8.88;;;;;;;;;;5016308;28;20048;-73
2023/08/29 12:52:14;;;;;;;9.93;9.05;;;;;;;;;;5015553;28;20389;-73
2023/08/29 12:54:45;;;;;;;11.32;8.38;;;;;;;;;;5012530;28;20041;-73
2023/08/29 12:57:11;;;;;;;9.93;8.60;;;;;;;;;;5016751;28;20036;-74
2023/08/29 12:59:36;;;;;;;9.80;8.77;;;;;;;;;;5015416;28;20116;-73
2023/08/29 13:02:02;;;;;;;13.05;8.30;;;;;;;;;;5016181;28;20026;-73
2023/08/29 13:04:28;;;;;;;9.23;8.32;;;;;;;;;;5015315;28;20033;-74
2023/08/29 13:06:56;;;;;;;8.18;7.35;;;;;;;;;;5015166;28;20018;-73
2023/08/29 13:09:22;;;;;;;8.85;7.95;;;;;;;;;;5015278;28;20465;-74
2023/08/29 13:11:47;;;;;;;8.80;7.35;;;;;;;;;;5016727;28;20173;-74
2023/08/29 13:14:12;;;;;;;9.00;8.05;;;;;;;;;;5016496;28;20061;-73
2023/08/29 13:16:38;;;;;;;8.38;7.47;;;;;;;;;;5016552;28;20501;-74
2023/08/29 13:19:03;;;;;;;8.90;7.90;;;;;;;;;;5016165;28;20034;-73
2023/08/29 13:21:29;;;;;;;8.65;7.30;;;;;;;;;;5015318;28;20068;-73
2023/08/29 13:23:55;;;;;;;9.25;7.80;;;;;;;;;;5014729;28;20037;-73
2023/08/29 13:26:20;;;;;;;8.45;7.38;;;;;;;;;;5016023;28;20095;-73
2023/08/29 13:28:46;;;;;;;9.00;8.10;;;;;;;;;;5016119;28;20029;-73
2023/08/29 13:31:13;;;;;;;9.05;7.55;;;;;;;;;;5016293;28;20024;-73
2023/08/29 13:33:38;;;;;;;9.05;8.15;;;;;;;;;;5015741;28;20045;-73
2023/08/29 13:36:04;;;;;;;9.52;8.40;;;;;;;;;;5015999;28;20028;-73
2023/08/29 13:38:30;;;;;;;13.55;9.30;;;;;;;;;;5016056;28;20490;-73
2023/08/29 13:40:56;;;;;;;9.02;8.15;;;;;;;;;;5015953;28;20045;-73
2023/08/29 13:43:21;;;;;;;8.63;7.60;;;;;;;;;;5015742;28;20030;-73
2023/08/29 13:45:46;;;;;;;9.52;8.27;;;;;;;;;;5015243;28;20490;-73
2023/08/29 13:48:13;;;;;;;9.05;8.15;;;;;;;;;;5015749;28;20026;-73
2023/08/29 13:50:39;;;;;;;10.13;7.95;;;;;;;;;;5015495;28;20490;-73
2023/08/29 13:53:05;;;;;;;9.00;7.43;;;;;;;;;;5015673;28;20559;-74
2023/08/29 13:55:30;;;;;;;8.45;7.72;;;;;;;;;;5015189;28;20108;-68
2023/08/29 13:57:56;;;;;;;9.15;8.25;;;;;;;;;;5015001;28;20477;-69
2023/08/29 14:00:21;;;;;;;10.82;7.82;;;;;;;;;;5014657;28;20038;-68
2023/08/29 14:02:47;;;;;;;21.63;19.05;;;;;;;;;;5014044;28;20030;-68
2023/08/29 14:05:12;;;;;;;8.77;8.00;;;;;;;;;;5014503;28;20028;-69
2023/08/29 14:07:38;;;;;;;8.10;7.30;;;;;;;;;;5014780;28;20112;-68
2023/08/29 14:10:03;;;;;;;9.10;7.95;;;;;;;;;;5011094;28;20021;-68
2023/08/29 14:12:29;;;;;;;11.07;9.98;;;;;;;;;;5007100;28;20040;-68
2023/08/29 14:14:54;;;;;;;62.20;20.70;;;;;;;;;;5014674;28;20117;-68
2023/08/29 14:17:20;;;;;;;13.63;10.63;;;;;;;;;;5013099;28;20466;-67
2023/08/29 14:19:45;;;;;;;12.15;9.73;;;;;;;;;;5012839;28;20060;-67
2023/08/29 14:22:10;;;;;;;14.60;11.07;;;;;;;;;;5011648;28;20041;-67
2023/08/29 14:24:36;;;;;;;14.30;11.05;;;;;;;;;;5007577;28;20030;-67
2023/08/29 14:27:01;;;;;;;10.90;8.75;;;;;;;;;;5002879;28;20144;-63
2023/08/29 14:29:30;;;;;;;13.88;11.05;;;;;;;;;;5014976;28;20037;-64
2023/08/29 14:31:55;;;;;;;13.60;10.65;;;;;;;;;;5015270;28;20037;-64
2023/08/29 14:34:21;;;;;;;17.05;12.38;;;;;;;;;;5013713;28;20037;-64
2023/08/29 14:36:46;;;;;;;17.30;12.07;;;;;;;;;;5014721;28;20109;-63